Nelson, British Columbia

7:18 PM PST on December 24, 2014 (GMT -0800)
Express News Update | Change Station
CLOSE
Current Station
Personal Weather Station
Location: Nelson, BRITISH COLUMBIA
Elevation: 2000 ft
Nearby Weather Stations

Elev 2000 ft 49.50 °N, 117.28 °W | Updated 13 seconds ago

Overcast
Overcast
32.9 °F
Feels Like 33 °F
N
0.6
Wind Variable Wind from South
Gusts 1.6 mph

Tomorrow is forecast to be nearly the same temperature as today.

Today
High -- | Low -- °F
--% Chance of Precip.
Yesterday
High -- | Low -- °F
Precip. -- in
7:44 AM 3:53 PM
Waxing Crescent, 13% visible
Pressure 29.78 in
Visibility 10.0 miles
Clouds Overcast 1100 ft
Windchill 33 °F
Dew Point 29 °F
Humidity 86%
Rainfall 0.18 in
Snow Depth Not available.
UV 0 out of 12
Pollen Not available.
Air Quality Not available.
Flu Activity Not available.
METAR CYCG 250100Z 05008KT 320V070 10SM OVC011 02/00 A2973 RMK SC8 LAST OBS/NEXT 251400UTC SLP084

More Conditions Fewer Conditions

Pressure 29.78 in
Visibility 10.0 miles
Clouds Overcast 1100 ft
Windchill 33 °F
Dew Point 29 °F
Humidity 86%
Rainfall 0.18 in
Snow Depth Not available.
UV 0 out of 12
Pollen Not available.
Air Quality Not available.
Flu Activity Not available.
METAR CYCG 250100Z 05008KT 320V070 10SM OVC011 02/00 A2973 RMK SC8 LAST OBS/NEXT 251400UTC SLP084

More Conditions Fewer Conditions

10-Day Weather Forecast

Almanac

Astronomy

Dec. 24, 2014 Rise Set
Actual Time
Civil Twilight
Nautical Twilight
Astronomical Twilight
Moon
Length of Visible Light
Length of Day
Tomorrow will be .
, % of the Moon is Illuminated

Today's Extremes

Country Highs Country Lows

Community

WunderPhotos

Upload Photos

1,780,224 photos uploaded!

WunderBlogs® & News

Nearby

Air Quality

  Air Quality AQ Index Pollutant
Not available.

Snow Depth

Station Depth Elevation

Earthquake Activity

City Distance Mag. Time & Date
Minimum magnitude displayed is 2.5.

Coastal Water Temperatures

Place Temperature

Nearby Weather Stations